Eads, Colorado
Current Conditions -  °F | °C
As of 11:53 AM on Friday 24 Oct 2014 (Local Time) from KLAA Reporting Station
Clear Clear  
Wind Chill: 78°   Ceiling: Unl
Heat Index: 78°   Visibility: 9mi
Dew Point: 35°   Wind: 9mph
Humidity: 21%   Direction: 270°W
Pressure: 30.12"   Gusts: NA
Location:  38.48°N, 102.78°W
Report Text: KLAA 241753Z AUTO 27008KT 9SM CLR 26/02 A3012 RMK AO2 SLP166 T02560017 10256 20044 58003
Loading
Personal Weather Stations






























Interactive Weather Map
Tropical Storm Tracking
New forecast layout! Learn more

10-Day Weather Forecast

Advertisements
Track Severe Weather on mobile